Time;durP1;ratioP1;P1;durP2;ratioP2;P2;SDS_P1;SDS_P2;PMS_P1;PMS_P2;Temp;Humidity;BMP_temperature;BMP_pressure;BME280_temperature;BME280_humidity;BME280_pressure;Samples;Min_cycle;Max_cycle;Signal;HPM_P1;HPM_P2
2021/01/22 00:00:19;;;;;;;1.60;0.70;;;9.00;99.90;;;;;;5016132;28;20685;-95
2021/01/22 00:02:49;;;;;;;0.80;0.60;;;9.10;99.90;;;;;;5016287;28;20172;-96
2021/01/22 00:05:15;;;;;;;1.10;0.60;;;9.20;99.90;;;;;;5015818;28;20671;-92
2021/01/22 00:07:41;;;;;;;1.20;0.60;;;9.10;99.90;;;;;;5016175;28;20180;-94
2021/01/22 00:10:08;;;;;;;1.37;0.60;;;9.10;99.90;;;;;;5015769;28;20183;-95
2021/01/22 00:12:36;;;;;;;1.23;0.50;;;9.00;99.90;;;;;;5016363;28;20238;-94
2021/01/22 00:15:02;;;;;;;1.50;0.70;;;9.10;99.90;;;;;;5015055;28;20708;-92
2021/01/22 00:17:28;;;;;;;2.70;0.90;;;9.10;99.90;;;;;;5015631;28;20179;-92
2021/01/22 00:19:54;;;;;;;1.13;0.57;;;9.10;99.90;;;;;;5015717;28;20622;-93
2021/01/22 00:22:22;;;;;;;1.97;0.70;;;9.10;99.90;;;;;;5015605;28;20183;-95
2021/01/22 00:24:48;;;;;;;1.00;0.70;;;9.10;99.90;;;;;;5015576;28;20180;-94
2021/01/22 00:27:14;;;;;;;2.23;0.67;;;9.10;99.90;;;;;;5015514;28;20187;-92
2021/01/22 00:29:40;;;;;;;1.23;0.60;;;9.20;99.90;;;;;;5015419;28;20186;-92
2021/01/22 00:32:05;;;;;;;2.10;0.70;;;9.20;99.90;;;;;;5015714;28;20224;-95
2021/01/22 00:34:31;;;;;;;1.20;0.50;;;9.30;99.90;;;;;;5014771;28;20237;-92
2021/01/22 00:36:57;;;;;;;1.70;0.70;;;9.40;99.90;;;;;;5015932;28;20253;-93
2021/01/22 00:39:23;;;;;;;0.83;0.67;;;9.30;99.90;;;;;;5015140;28;20175;-93
2021/01/22 00:41:51;;;;;;;0.50;0.50;;;9.40;99.90;;;;;;4998799;28;20190;-93
2021/01/22 00:44:17;;;;;;;0.80;0.70;;;9.50;99.90;;;;;;5015218;28;20178;-93
2021/01/22 00:46:43;;;;;;;1.10;0.80;;;9.50;99.90;;;;;;5014913;28;20167;-93
2021/01/22 00:49:09;;;;;;;0.70;0.60;;;9.50;99.90;;;;;;5015266;28;20187;-93
2021/01/22 00:51:35;;;;;;;1.87;0.93;;;9.50;99.90;;;;;;4998956;28;20183;-95
2021/01/22 00:54:00;;;;;;;2.40;0.70;;;9.50;99.90;;;;;;4995859;28;20226;-94
2021/01/22 00:56:26;;;;;;;1.00;0.57;;;9.40;99.90;;;;;;5011864;28;20219;-92
2021/01/22 00:58:52;;;;;;;0.57;0.50;;;9.50;99.90;;;;;;5011185;28;20314;-93
2021/01/22 01:01:17;;;;;;;1.07;0.70;;;9.50;99.90;;;;;;5011155;28;20191;-91
2021/01/22 01:03:43;;;;;;;1.50;0.70;;;9.50;99.90;;;;;;5011071;28;20222;-94
2021/01/22 01:06:09;;;;;;;0.90;0.50;;;9.60;99.90;;;;;;5011298;28;20255;-93
2021/01/22 01:08:35;;;;;;;0.60;0.60;;;9.60;99.90;;;;;;4994612;28;20186;-93
2021/01/22 01:11:01;;;;;;;1.23;0.70;;;9.60;99.90;;;;;;5011072;28;20520;-93
2021/01/22 01:13:26;;;;;;;1.67;0.60;;;9.60;99.90;;;;;;5011200;28;20262;-92
2021/01/22 01:15:52;;;;;;;2.03;0.80;;;9.70;99.90;;;;;;4994643;28;20235;-93
2021/01/22 01:18:18;;;;;;;1.50;0.80;;;9.70;99.90;;;;;;5011417;28;20190;-92
2021/01/22 01:20:44;;;;;;;2.27;0.80;;;9.70;99.90;;;;;;5011051;28;20528;-94
2021/01/22 01:23:14;;;;;;;1.23;0.70;;;9.60;99.90;;;;;;4986562;28;20794;-93
2021/01/22 01:25:41;;;;;;;0.80;0.60;;;9.60;99.90;;;;;;4994431;28;20491;-94
2021/01/22 01:28:07;;;;;;;0.97;0.70;;;9.60;99.90;;;;;;4997441;28;20179;-92
2021/01/22 01:30:34;;;;;;;1.07;0.67;;;9.60;99.90;;;;;;5394336;23;20251;-93
2021/01/22 01:33:00;;;;;;;0.67;0.60;;;9.50;99.90;;;;;;4962770;28;20224;-92
2021/01/22 01:35:26;;;;;;;0.80;0.70;;;9.50;99.90;;;;;;4962707;28;20250;-92
2021/01/22 01:37:53;;;;;;;1.60;0.80;;;9.50;99.90;;;;;;4962614;28;20181;-93
2021/01/22 01:40:19;;;;;;;1.27;0.70;;;9.40;99.90;;;;;;4963016;28;20250;-94
2021/01/22 01:42:45;;;;;;;0.80;0.50;;;9.50;99.90;;;;;;4963114;28;20181;-94
2021/01/22 01:45:12;;;;;;;1.57;0.90;;;9.40;99.90;;;;;;4963356;28;20188;-92
2021/01/22 01:47:38;;;;;;;0.90;0.70;;;9.50;99.90;;;;;;4962896;28;20250;-95
2021/01/22 01:50:05;;;;;;;3.90;0.73;;;9.50;99.90;;;;;;4962816;28;20267;-93
2021/01/22 01:52:31;;;;;;;1.93;1.00;;;9.50;99.90;;;;;;4946390;28;20625;-92
2021/01/22 01:54:58;;;;;;;1.30;0.70;;;9.50;99.90;;;;;;4962286;28;20249;-93
2021/01/22 01:57:24;;;;;;;1.83;0.67;;;9.50;99.90;;;;;;4962882;28;20185;-94
2021/01/22 01:59:50;;;;;;;2.83;0.77;;;9.50;99.90;;;;;;4962445;28;20189;-92
2021/01/22 02:02:18;;;;;;;2.53;0.80;;;9.50;99.90;;;;;;4962387;28;20642;-94
2021/01/22 02:04:46;;;;;;;1.17;0.80;;;9.70;99.90;;;;;;4962722;28;20187;-94
2021/01/22 02:07:12;;;;;;;3.37;0.87;;;9.70;99.90;;;;;;4962376;28;20507;-95
2021/01/22 02:09:38;;;;;;;1.13;0.73;;;9.70;99.90;;;;;;4946597;28;20873;-95
2021/01/22 02:12:08;;;;;;;3.03;0.77;;;9.80;99.90;;;;;;4962620;28;20189;-94
2021/01/22 02:14:36;;;;;;;2.93;0.93;;;9.80;99.90;;;;;;4962969;28;20187;-94
2021/01/22 02:17:03;;;;;;;0.60;0.53;;;9.70;99.90;;;;;;4962390;28;20188;-93
2021/01/22 02:19:52;;;;;;;1.87;0.90;;;9.80;99.90;;;;;;4962198;28;20189;-93
2021/01/22 02:22:19;;;;;;;3.40;0.90;;;9.70;99.90;;;;;;4947607;28;20288;-93
2021/01/22 02:24:46;;;;;;;1.43;0.70;;;9.70;99.90;;;;;;4962332;28;20177;-95
2021/01/22 02:27:15;;;;;;;1.43;0.67;;;9.60;99.90;;;;;;4946056;28;20191;-94
2021/01/22 02:29:40;;;;;;;1.27;0.80;;;9.60;99.90;;;;;;4962150;28;20176;-94
2021/01/22 02:32:09;;;;;;;4.97;0.80;;;9.50;99.90;;;;;;4981162;28;20191;-94
2021/01/22 02:34:38;;;;;;;2.37;0.60;;;9.50;99.90;;;;;;4980928;28;20230;-94
2021/01/22 02:37:07;;;;;;;1.63;0.70;;;9.50;99.90;;;;;;4981194;28;20633;-95
2021/01/22 02:39:36;;;;;;;1.00;0.70;;;9.40;99.90;;;;;;4980867;28;20258;-95
2021/01/22 02:42:03;;;;;;;0.90;0.73;;;9.30;99.90;;;;;;4981254;28;20509;-92
2021/01/22 02:44:30;;;;;;;3.20;0.90;;;9.30;99.90;;;;;;4964603;28;20184;-92
2021/01/22 02:47:00;;;;;;;2.57;0.83;;;9.40;99.90;;;;;;4980710;28;20241;-92
2021/01/22 02:49:25;;;;;;;2.43;0.83;;;9.40;99.90;;;;;;4965183;28;20231;-93
2021/01/22 02:51:52;;;;;;;1.67;0.90;;;9.40;99.90;;;;;;4997985;28;20721;-94
2021/01/22 02:54:17;;;;;;;0.97;0.77;;;9.50;99.90;;;;;;4980600;28;20184;-93
2021/01/22 02:56:55;;;;;;;3.67;0.87;;;9.50;99.90;;;;;;4980499;28;20239;-94
2021/01/22 02:59:45;;;;;;;2.53;0.70;;;9.50;99.90;;;;;;4984034;28;20187;-92
2021/01/22 03:02:36;;;;;;;1.20;0.70;;;9.50;99.90;;;;;;4983978;28;20177;-93
2021/01/22 03:05:03;;;;;;;2.17;0.93;;;9.50;99.90;;;;;;4983658;28;20169;-92
2021/01/22 03:07:43;;;;;;;1.37;0.80;;;9.60;99.90;;;;;;4983496;28;20161;-93
2021/01/22 03:10:13;;;;;;;2.57;0.90;;;9.60;99.90;;;;;;4982952;28;20160;-94
2021/01/22 03:12:39;;;;;;;1.47;0.87;;;9.70;99.90;;;;;;4982926;28;20192;-94
2021/01/22 03:15:06;;;;;;;1.67;0.90;;;9.70;99.90;;;;;;4978849;28;20223;-91
2021/01/22 03:17:31;;;;;;;1.83;0.80;;;9.70;99.90;;;;;;4969001;28;20619;-93
2021/01/22 03:19:57;;;;;;;1.93;1.00;;;9.70;99.90;;;;;;4961723;28;20191;-95
2021/01/22 03:22:23;;;;;;;1.47;0.90;;;9.80;99.90;;;;;;4961071;28;20188;-94
2021/01/22 03:24:49;;;;;;;1.27;0.63;;;9.80;99.90;;;;;;4960884;28;20173;-94
2021/01/22 03:27:17;;;;;;;2.33;0.90;;;9.90;99.90;;;;;;4960953;28;20188;-93
2021/01/22 03:29:43;;;;;;;2.17;0.80;;;9.90;99.90;;;;;;4960806;28;20488;-94
2021/01/22 03:32:09;;;;;;;3.03;1.00;;;9.90;99.90;;;;;;4978694;28;20192;-94
2021/01/22 03:34:35;;;;;;;1.80;0.90;;;10.00;99.90;;;;;;4980230;28;20259;-94
2021/01/22 03:37:02;;;;;;;2.13;0.90;;;10.00;99.90;;;;;;4983374;28;20219;-93
2021/01/22 03:39:28;;;;;;;2.17;1.10;;;9.90;99.90;;;;;;4990306;28;20270;-92
2021/01/22 03:41:54;;;;;;;2.27;1.00;;;9.90;99.90;;;;;;4982604;28;20180;-93
2021/01/22 03:44:20;;;;;;;1.97;0.80;;;9.80;99.90;;;;;;4981199;28;20626;-95
2021/01/22 03:46:47;;;;;;;1.63;0.93;;;9.80;99.90;;;;;;4980918;28;20176;-93
2021/01/22 03:49:13;;;;;;;3.53;1.07;;;9.90;99.90;;;;;;4979292;28;20190;-93
2021/01/22 03:51:39;;;;;;;2.63;1.10;;;10.00;99.90;;;;;;4979224;28;20192;-93
2021/01/22 03:54:05;;;;;;;2.70;0.90;;;10.00;99.90;;;;;;4979212;28;20187;-93
2021/01/22 03:56:32;;;;;;;2.50;1.20;;;9.90;99.90;;;;;;4979292;28;20207;-95
2021/01/22 03:58:57;;;;;;;1.20;0.67;;;9.90;99.90;;;;;;4979217;28;20270;-93
2021/01/22 04:01:23;;;;;;;3.00;0.80;;;9.90;99.90;;;;;;4978863;28;20271;-94
2021/01/22 04:03:49;;;;;;;2.57;0.93;;;10.00;99.90;;;;;;4978886;28;20624;-93
2021/01/22 04:06:16;;;;;;;3.67;1.20;;;10.00;99.90;;;;;;4979552;28;20183;-94
2021/01/22 04:08:42;;;;;;;1.50;0.90;;;10.00;99.90;;;;;;4979373;28;20187;-94
2021/01/22 04:11:08;;;;;;;2.90;1.10;;;10.10;99.90;;;;;;4979369;28;20434;-92
2021/01/22 04:13:34;;;;;;;4.43;1.23;;;10.10;99.90;;;;;;4979621;28;20182;-96
2021/01/22 04:16:04;;;;;;;1.30;0.80;;;10.10;99.90;;;;;;4978972;28;20298;-94
2021/01/22 04:18:30;;;;;;;1.97;0.97;;;10.00;99.90;;;;;;4979489;28;20203;-93
2021/01/22 04:20:55;;;;;;;2.70;0.87;;;10.00;99.90;;;;;;4979295;28;20222;-94
2021/01/22 04:23:21;;;;;;;1.27;0.80;;;10.00;99.90;;;;;;4978947;28;20172;-93
2021/01/22 04:25:47;;;;;;;2.13;1.10;;;10.10;99.90;;;;;;4979304;28;20214;-94
2021/01/22 04:28:13;;;;;;;1.27;0.80;;;10.00;99.90;;;;;;4979503;28;20208;-95
2021/01/22 04:30:39;;;;;;;2.60;0.90;;;9.90;99.90;;;;;;4972177;28;20228;-95
2021/01/22 04:33:07;;;;;;;2.43;1.10;;;9.90;99.90;;;;;;4959496;28;20467;-94
2021/01/22 04:35:33;;;;;;;2.37;1.00;;;9.90;99.90;;;;;;4960041;28;20664;-94
2021/01/22 04:37:59;;;;;;;3.30;1.10;;;9.80;99.90;;;;;;4959754;28;20184;-93
2021/01/22 04:40:26;;;;;;;1.73;0.90;;;9.90;99.90;;;;;;4959544;28;20206;-94
2021/01/22 04:42:53;;;;;;;2.33;0.77;;;9.80;99.90;;;;;;4959205;28;20183;-95
2021/01/22 04:45:19;;;;;;;2.60;0.87;;;9.90;99.90;;;;;;4959323;28;20196;-95
2021/01/22 04:47:45;;;;;;;1.33;0.83;;;9.90;99.90;;;;;;4959341;28;20231;-96
2021/01/22 04:50:13;;;;;;;2.00;1.00;;;9.90;99.90;;;;;;4959690;28;20181;-94
2021/01/22 04:52:39;;;;;;;3.27;1.13;;;9.90;99.90;;;;;;4959856;28;20180;-95
2021/01/22 04:55:15;;;;;;;2.10;0.83;;;10.00;99.90;;;;;;4959075;28;20208;-93
2021/01/22 04:57:46;;;;;;;3.40;1.13;;;10.00;99.90;;;;;;4959193;28;20176;-94
2021/01/22 05:00:14;;;;;;;1.47;0.83;;;10.00;99.90;;;;;;4959348;28;20192;-93
2021/01/22 05:02:40;;;;;;;2.00;0.90;;;10.10;99.90;;;;;;4959237;28;20291;-93
2021/01/22 05:05:08;;;;;;;3.17;1.10;;;10.20;99.90;;;;;;4958810;28;20176;-93
2021/01/22 05:07:35;;;;;;;2.27;0.93;;;10.20;99.90;;;;;;4959324;28;20187;-93
2021/01/22 05:10:01;;;;;;;1.97;0.60;;;10.20;99.90;;;;;;4959622;28;20188;-93
2021/01/22 05:12:37;;;;;;;1.83;0.90;;;10.30;99.90;;;;;;4959287;28;20278;-93
2021/01/22 05:15:22;;;;;;;2.87;0.90;;;10.30;99.90;;;;;;4959153;28;20247;-93
2021/01/22 05:17:55;;;;;;;2.03;0.70;;;10.20;99.90;;;;;;4959216;28;20176;-94
2021/01/22 05:20:38;;;;;;;1.63;1.10;;;10.30;99.90;;;;;;4958103;28;20198;-94
2021/01/22 05:23:06;;;;;;;1.93;0.90;;;10.30;99.90;;;;;;4958747;28;20192;-92
2021/01/22 05:25:32;;;;;;;1.43;0.70;;;10.30;99.90;;;;;;4958856;28;20168;-92
2021/01/22 05:27:59;;;;;;;1.10;0.70;;;10.30;99.90;;;;;;4959032;28;20181;-94
2021/01/22 05:30:28;;;;;;;4.63;0.90;;;10.30;99.90;;;;;;4957304;28;20228;-92
2021/01/22 05:33:15;;;;;;;3.03;0.73;;;10.10;99.90;;;;;;4958815;28;20187;-90
2021/01/22 05:35:41;;;;;;;1.20;0.60;;;9.60;99.90;;;;;;4958893;28;20255;-91
2021/01/22 05:38:07;;;;;;;2.57;0.60;;;9.20;99.90;;;;;;4959067;28;20275;-91
2021/01/22 05:40:33;;;;;;;0.83;0.40;;;8.90;99.90;;;;;;4959469;28;20345;-91
2021/01/22 05:42:59;;;;;;;1.27;0.50;;;8.80;99.90;;;;;;4959043;28;20180;-89
2021/01/22 05:45:37;;;;;;;2.03;0.70;;;8.60;99.90;;;;;;4976048;28;20176;-90
2021/01/22 05:48:03;;;;;;;2.63;0.70;;;8.10;99.90;;;;;;4958582;28;20176;-89
2021/01/22 05:50:53;;;;;;;1.03;0.70;;;7.90;99.90;;;;;;4958229;28;20203;-89
2021/01/22 05:53:20;;;;;;;1.13;0.53;;;7.70;99.90;;;;;;4958402;28;20172;-90
2021/01/22 05:56:03;;;;;;;1.90;0.90;;;7.60;99.90;;;;;;4958996;28;20220;-88
2021/01/22 05:58:29;;;;;;;0.40;0.30;;;7.30;99.90;;;;;;4958556;28;20611;-89
2021/01/22 06:01:10;;;;;;;0.33;0.30;;;6.90;99.90;;;;;;4958358;28;20220;-87
2021/01/22 06:03:38;;;;;;;0.40;0.33;;;6.80;99.90;;;;;;4959147;28;20754;-89
2021/01/22 06:06:05;;;;;;;0.50;0.40;;;6.60;99.90;;;;;;4958623;28;20175;-89
2021/01/22 06:08:31;;;;;;;0.40;0.30;;;6.40;99.90;;;;;;4958814;28;20284;-89
2021/01/22 06:11:00;;;;;;;0.53;0.40;;;6.30;99.90;;;;;;4958822;28;20177;-89
2021/01/22 06:13:27;;;;;;;0.67;0.40;;;6.30;99.90;;;;;;4960043;28;20212;-89
2021/01/22 06:15:59;;;;;;;0.60;0.47;;;6.20;99.90;;;;;;4978985;28;20278;-89
2021/01/22 06:18:31;;;;;;;1.83;0.40;;;6.10;99.90;;;;;;4961967;28;20177;-88
2021/01/22 06:21:23;;;;;;;0.33;0.30;;;6.10;99.90;;;;;;4961966;28;20552;-89
2021/01/22 06:23:50;;;;;;;0.30;0.30;;;5.90;99.90;;;;;;4962006;28;20194;-89
2021/01/22 06:26:18;;;;;;;0.20;0.20;;;5.80;99.90;;;;;;4962550;28;20631;-89
2021/01/22 06:28:44;;;;;;;0.50;0.30;;;5.80;99.90;;;;;;4962069;28;20243;-88
2021/01/22 06:31:10;;;;;;;1.90;0.37;;;5.80;99.90;;;;;;4961243;28;20289;-89
2021/01/22 06:33:37;;;;;;;0.67;0.40;;;5.70;99.90;;;;;;4961814;28;20172;-89
2021/01/22 06:36:06;;;;;;;1.40;0.40;;;5.60;99.90;;;;;;4961233;28;20219;-89
2021/01/22 06:38:33;;;;;;;0.70;0.40;;;5.50;99.90;;;;;;4961439;28;20180;-90
2021/01/22 06:40:59;;;;;;;1.07;0.50;;;5.50;99.90;;;;;;4961197;28;20187;-90
2021/01/22 06:43:28;;;;;;;0.40;0.40;;;5.50;99.90;;;;;;4961715;28;20176;-90
2021/01/22 06:46:04;;;;;;;1.03;0.50;;;5.50;99.90;;;;;;4961376;28;20173;-89
2021/01/22 06:48:48;;;;;;;0.70;0.50;;;5.40;99.90;;;;;;4961487;28;20177;-88
2021/01/22 06:51:15;;;;;;;0.60;0.53;;;5.40;99.90;;;;;;4961338;28;20558;-89
2021/01/22 06:54:16;;;;;;;0.63;0.50;;;5.30;99.90;;;;;;4954343;29;20502;-89
2021/01/22 06:56:50;;;;;;;1.40;0.77;;;5.40;99.90;;;;;;4950899;28;20213;-89
2021/01/22 06:59:20;;;;;;;1.47;0.90;;;5.30;99.90;;;;;;4964481;28;20188;-90
2021/01/22 07:01:46;;;;;;;1.10;1.00;;;5.30;99.90;;;;;;4948803;28;20579;-90
2021/01/22 07:04:30;;;;;;;1.93;1.00;;;5.40;99.90;;;;;;4949055;29;20177;-90
2021/01/22 07:07:03;;;;;;;1.37;1.00;;;5.30;99.90;;;;;;4943692;29;20173;-88
2021/01/22 07:09:52;;;;;;;2.43;1.53;;;5.30;99.90;;;;;;4941837;29;20185;-89
2021/01/22 07:12:36;;;;;;;1.30;1.20;;;5.30;99.90;;;;;;4941625;28;20193;-90
2021/01/22 07:15:24;;;;;;;2.00;1.40;;;5.40;99.90;;;;;;4950180;28;20192;-88
2021/01/22 07:17:59;;;;;;;1.30;1.20;;;5.40;99.90;;;;;;4959055;28;20244;-90
2021/01/22 07:20:28;;;;;;;2.03;1.30;;;5.40;99.90;;;;;;4951547;28;20200;-88
2021/01/22 07:23:01;;;;;;;2.00;1.40;;;5.40;99.90;;;;;;4946701;29;20651;-90
2021/01/22 07:25:38;;;;;;;1.53;1.17;;;5.30;99.90;;;;;;4940397;29;20565;-90
2021/01/22 07:28:24;;;;;;;1.27;1.17;;;5.40;99.90;;;;;;4941600;29;20177;-90
2021/01/22 07:30:50;;;;;;;1.47;1.13;;;5.40;99.90;;;;;;4949279;28;20239;-89
2021/01/22 07:33:36;;;;;;;1.63;1.10;;;5.40;99.90;;;;;;4960019;28;20184;-89
2021/01/22 07:36:10;;;;;;;0.90;0.77;;;5.30;99.90;;;;;;4958823;28;20212;-90
2021/01/22 07:38:37;;;;;;;1.13;0.90;;;5.40;99.90;;;;;;4977360;28;20207;-90
2021/01/22 07:41:04;;;;;;;2.27;1.00;;;5.40;99.90;;;;;;4944392;28;20195;-90
2021/01/22 07:43:31;;;;;;;1.97;0.90;;;5.40;99.90;;;;;;4944103;28;20267;-90
2021/01/22 07:46:08;;;;;;;1.00;0.67;;;5.40;99.90;;;;;;4928313;28;20189;-90
2021/01/22 07:48:35;;;;;;;0.70;0.67;;;5.40;99.90;;;;;;4959457;28;20176;-89
2021/01/22 07:51:38;;;;;;;0.80;0.80;;;5.30;99.90;;;;;;4977048;28;20184;-91
2021/01/22 07:54:05;;;;;;;1.13;0.90;;;5.30;99.90;;;;;;4970949;28;20639;-96
2021/01/22 07:56:35;;;;;;;2.10;0.97;;;5.30;99.90;;;;;;4975559;28;20279;-94
2021/01/22 07:59:03;;;;;;;1.13;0.63;;;5.20;99.90;;;;;;4979542;28;20215;-90
2021/01/22 08:01:45;;;;;;;0.83;0.60;;;5.20;99.90;;;;;;4994651;28;20690;-93
2021/01/22 08:04:11;;;;;;;1.10;0.50;;;5.20;99.90;;;;;;4981217;28;20176;-89
2021/01/22 08:06:47;;;;;;;2.00;0.70;;;5.20;99.90;;;;;;4981657;28;20177;-96
2021/01/22 08:09:13;;;;;;;1.77;0.77;;;5.20;99.90;;;;;;4981055;28;20198;-90
2021/01/22 08:11:40;;;;;;;2.00;0.77;;;5.20;99.90;;;;;;4976052;28;20188;-90
2021/01/22 08:14:07;;;;;;;1.17;0.70;;;5.20;99.90;;;;;;4970566;28;20235;-88
2021/01/22 08:16:34;;;;;;;1.67;0.53;;;5.20;99.90;;;;;;4955271;28;20199;-89
2021/01/22 08:19:00;;;;;;;0.50;0.50;;;5.30;99.90;;;;;;4950069;28;20698;-87
2021/01/22 08:21:30;;;;;;;1.77;0.80;;;5.20;99.90;;;;;;4950932;28;20213;-89
2021/01/22 08:23:59;;;;;;;0.83;0.73;;;5.30;99.90;;;;;;4952675;28;20184;-89
2021/01/22 08:26:28;;;;;;;2.00;0.90;;;5.30;99.90;;;;;;4944885;28;20196;-88
2021/01/22 08:28:55;;;;;;;1.07;0.80;;;5.30;99.90;;;;;;4948953;28;20521;-89
2021/01/22 08:31:22;;;;;;;2.10;0.63;;;5.30;99.90;;;;;;4958776;28;20295;-89
2021/01/22 08:33:49;;;;;;;1.00;0.50;;;5.30;99.90;;;;;;4959034;28;20243;-89
2021/01/22 08:36:15;;;;;;;1.00;0.60;;;5.40;99.90;;;;;;4958550;28;20223;-90
2021/01/22 08:38:41;;;;;;;1.50;0.70;;;5.40;99.90;;;;;;4959004;28;20180;-90
2021/01/22 08:41:07;;;;;;;1.40;0.80;;;5.40;99.90;;;;;;4959040;28;20192;-89
2021/01/22 08:43:49;;;;;;;1.87;0.83;;;5.40;99.90;;;;;;4959228;28;20177;-89
2021/01/22 08:46:17;;;;;;;1.20;0.90;;;5.40;99.90;;;;;;4959074;28;20204;-89
2021/01/22 08:48:43;;;;;;;1.40;0.80;;;5.40;99.90;;;;;;4959216;28;20252;-89
2021/01/22 08:51:09;;;;;;;2.50;0.90;;;5.40;99.90;;;;;;4958898;28;20223;-89
2021/01/22 08:53:49;;;;;;;1.87;0.93;;;5.40;99.90;;;;;;4958991;28;20184;-89
2021/01/22 08:56:16;;;;;;;1.17;0.90;;;5.40;99.90;;;;;;4959132;28;20236;-89
2021/01/22 08:59:01;;;;;;;1.20;0.90;;;5.40;99.90;;;;;;4976399;28;20173;-88
2021/01/22 09:01:47;;;;;;;1.73;1.10;;;5.40;99.90;;;;;;4958700;28;20193;-89
2021/01/22 09:04:28;;;;;;;1.10;1.00;;;5.50;99.90;;;;;;4959033;28;20252;-89
2021/01/22 09:06:58;;;;;;;2.57;1.30;;;5.50;99.90;;;;;;4959108;28;20176;-90
2021/01/22 09:09:47;;;;;;;1.57;0.80;;;5.50;99.90;;;;;;4959283;28;20628;-90
2021/01/22 09:12:17;;;;;;;1.63;0.90;;;5.50;99.90;;;;;;4975917;28;20630;-89
2021/01/22 09:14:59;;;;;;;1.43;1.10;;;5.50;99.90;;;;;;4958935;28;20256;-89
2021/01/22 09:17:27;;;;;;;5.70;1.10;;;5.50;99.90;;;;;;4958575;28;20523;-89
2021/01/22 09:19:58;;;;;;;1.83;1.10;;;5.50;99.90;;;;;;4958784;28;20515;-89
2021/01/22 09:22:31;;;;;;;3.07;0.93;;;5.50;99.90;;;;;;4975967;28;20168;-90
2021/01/22 09:24:58;;;;;;;2.47;1.00;;;5.50;99.90;;;;;;4958978;28;20211;-90
2021/01/22 09:27:24;;;;;;;0.93;0.80;;;5.50;99.90;;;;;;4958775;28;20187;-90
2021/01/22 09:29:50;;;;;;;2.67;1.00;;;5.50;99.90;;;;;;4959907;28;20192;-89
2021/01/22 09:32:15;;;;;;;1.80;0.87;;;5.60;99.90;;;;;;4958620;28;20288;-89
2021/01/22 09:34:43;;;;;;;1.93;0.90;;;5.60;99.90;;;;;;4958483;28;20185;-90
2021/01/22 09:37:09;;;;;;;2.00;1.13;;;5.60;99.90;;;;;;4958511;28;20238;-91
2021/01/22 09:39:35;;;;;;;1.70;1.20;;;5.70;99.90;;;;;;4958636;28;20204;-90
2021/01/22 09:42:01;;;;;;;1.87;1.10;;;5.70;99.90;;;;;;4958639;28;20188;-90
2021/01/22 09:44:30;;;;;;;3.33;1.57;;;5.70;99.90;;;;;;4958612;28;20181;-90
2021/01/22 09:46:57;;;;;;;1.80;1.13;;;5.70;99.90;;;;;;4958348;28;20180;-89
2021/01/22 09:49:22;;;;;;;1.53;1.30;;;5.70;99.90;;;;;;4978214;28;20184;-92
2021/01/22 09:51:49;;;;;;;1.97;1.20;;;5.70;99.90;;;;;;4962001;28;20211;-90
2021/01/22 09:54:14;;;;;;;2.40;1.40;;;5.70;99.90;;;;;;4962334;28;20246;-91
2021/01/22 09:56:40;;;;;;;4.17;1.37;;;5.80;99.90;;;;;;4964463;28;20208;-90
2021/01/22 09:59:08;;;;;;;2.13;1.33;;;5.80;99.90;;;;;;4966671;28;20195;-91
2021/01/22 10:01:35;;;;;;;2.70;1.70;;;5.80;99.90;;;;;;4963264;28;20200;-91
2021/01/22 10:04:01;;;;;;;3.27;1.50;;;5.90;99.90;;;;;;4961209;28;20184;-90
2021/01/22 10:06:28;;;;;;;2.00;1.43;;;5.90;99.90;;;;;;4961817;28;20180;-91
2021/01/22 10:08:55;;;;;;;3.40;1.77;;;6.00;99.90;;;;;;4961951;28;20191;-92
2021/01/22 10:11:20;;;;;;;2.27;1.63;;;6.10;99.90;;;;;;4961967;28;20192;-91
2021/01/22 10:13:53;;;;;;;4.40;1.47;;;6.10;99.90;;;;;;4961978;28;20188;-91
2021/01/22 10:16:20;;;;;;;2.20;1.50;;;6.20;99.90;;;;;;4961945;28;20227;-91
2021/01/22 10:18:48;;;;;;;3.50;1.60;;;6.20;99.90;;;;;;4962265;28;20177;-89
2021/01/22 10:21:15;;;;;;;4.57;1.67;;;6.20;99.90;;;;;;4979191;28;20188;-91
2021/01/22 10:23:41;;;;;;;2.67;1.60;;;6.20;99.90;;;;;;4979142;28;20484;-91
2021/01/22 10:26:07;;;;;;;7.10;1.70;;;6.20;99.90;;;;;;4961600;28;20268;-90
2021/01/22 10:28:33;;;;;;;2.33;1.30;;;6.20;99.90;;;;;;4961822;28;20580;-90
2021/01/22 10:30:58;;;;;;;1.73;1.60;;;6.20;99.90;;;;;;4961322;28;20232;-91
2021/01/22 10:33:24;;;;;;;4.43;2.20;;;6.20;99.90;;;;;;4961118;28;20695;-90
2021/01/22 10:35:50;;;;;;;3.57;1.60;;;6.20;99.90;;;;;;4961222;28;20223;-91
2021/01/22 10:38:16;;;;;;;2.53;2.00;;;6.10;99.90;;;;;;4960993;28;20192;-91
2021/01/22 10:40:42;;;;;;;3.77;2.00;;;6.20;99.90;;;;;;4961360;28;20184;-91
2021/01/22 10:43:08;;;;;;;5.77;2.40;;;6.20;99.90;;;;;;4960677;28;20184;-90
2021/01/22 10:45:34;;;;;;;4.07;2.20;;;6.20;99.90;;;;;;4978249;28;20699;-90
2021/01/22 10:48:00;;;;;;;3.83;2.20;;;6.20;99.90;;;;;;4961152;28;20271;-90
2021/01/22 10:50:26;;;;;;;5.10;2.30;;;6.20;99.90;;;;;;4978121;28;20202;-89
2021/01/22 10:52:53;;;;;;;5.33;2.30;;;6.20;99.90;;;;;;4960829;28;20180;-90
2021/01/22 10:55:19;;;;;;;7.00;2.20;;;6.20;99.90;;;;;;4960923;28;20212;-90
2021/01/22 10:57:45;;;;;;;5.30;2.00;;;6.30;99.90;;;;;;4960971;28;20236;-90
2021/01/22 11:00:12;;;;;;;5.60;2.43;;;6.20;99.90;;;;;;4960865;28;20234;-90
2021/01/22 11:02:38;;;;;;;4.03;2.27;;;6.30;99.90;;;;;;4960764;28;20267;-91
2021/01/22 11:05:04;;;;;;;4.90;2.90;;;6.30;99.90;;;;;;4960769;28;20208;-91
2021/01/22 11:07:30;;;;;;;4.67;2.80;;;6.30;99.90;;;;;;4960756;28;20183;-91
2021/01/22 11:09:56;;;;;;;4.10;2.80;;;6.30;99.90;;;;;;4960926;28;20184;-90
2021/01/22 11:12:21;;;;;;;5.67;2.80;;;6.30;99.90;;;;;;4960928;28;20207;-91
2021/01/22 11:14:47;;;;;;;3.93;2.77;;;6.30;99.90;;;;;;4960824;28;20188;-91
2021/01/22 11:17:13;;;;;;;4.10;2.87;;;6.40;99.90;;;;;;4960124;28;20263;-91
2021/01/22 11:19:39;;;;;;;4.80;3.10;;;6.30;99.90;;;;;;4961140;28;20204;-91
2021/01/22 11:22:05;;;;;;;5.20;2.77;;;6.30;99.90;;;;;;4963263;28;20608;-90
2021/01/22 11:24:33;;;;;;;6.73;3.00;;;6.40;99.90;;;;;;4960380;28;20271;-91
2021/01/22 11:26:59;;;;;;;6.47;2.87;;;6.40;99.90;;;;;;4960010;28;20505;-91
2021/01/22 11:29:25;;;;;;;4.50;2.80;;;6.40;99.90;;;;;;4960289;28;20195;-90
2021/01/22 11:31:50;;;;;;;8.57;3.37;;;6.30;99.90;;;;;;4956340;28;20228;-92
2021/01/22 11:34:16;;;;;;;5.83;3.10;;;6.40;99.90;;;;;;4959740;28;20195;-93
2021/01/22 11:36:42;;;;;;;5.10;3.00;;;6.40;99.90;;;;;;4960060;28;20220;-91
2021/01/22 11:39:08;;;;;;;3.80;2.60;;;6.50;99.90;;;;;;4977195;28;20213;-91
2021/01/22 11:41:33;;;;;;;5.40;3.20;;;6.50;99.90;;;;;;4960376;28;20535;-91
2021/01/22 11:43:59;;;;;;;5.87;3.13;;;6.50;99.90;;;;;;4960041;28;20639;-89
2021/01/22 11:46:24;;;;;;;6.57;2.90;;;6.60;99.90;;;;;;4960011;28;20181;-91
2021/01/22 11:48:50;;;;;;;5.17;3.13;;;6.50;99.90;;;;;;4955520;28;20186;-91
2021/01/22 11:51:18;;;;;;;6.67;2.97;;;6.50;99.90;;;;;;4943241;29;20605;-91
2021/01/22 11:53:45;;;;;;;5.23;3.17;;;6.60;99.90;;;;;;4957466;28;20675;-92
2021/01/22 11:56:11;;;;;;;5.80;3.33;;;6.70;99.90;;;;;;4965579;28;20296;-91
2021/01/22 11:58:37;;;;;;;6.50;3.10;;;6.70;99.90;;;;;;4977144;28;20171;-90
2021/01/22 12:01:03;;;;;;;8.00;3.37;;;6.60;99.90;;;;;;4976811;28;20208;-91
2021/01/22 12:03:29;;;;;;;9.17;3.37;;;6.60;99.90;;;;;;4959762;28;20187;-90
2021/01/22 12:05:55;;;;;;;7.03;3.37;;;6.60;99.90;;;;;;4959904;28;20185;-91
2021/01/22 12:08:22;;;;;;;6.27;3.53;;;6.60;99.90;;;;;;4959826;28;20231;-92
2021/01/22 12:10:47;;;;;;;4.60;3.40;;;6.60;99.90;;;;;;4959433;28;20180;-91
2021/01/22 12:13:13;;;;;;;7.50;3.47;;;6.60;99.90;;;;;;4959175;28;20186;-91
2021/01/22 12:15:39;;;;;;;7.90;3.70;;;6.70;99.90;;;;;;4959128;28;20669;-91
2021/01/22 12:18:08;;;;;;;6.20;3.40;;;6.70;99.90;;;;;;4976607;28;20188;-90
2021/01/22 12:20:33;;;;;;;5.70;3.30;;;6.60;99.90;;;;;;4959490;28;20207;-91
2021/01/22 12:22:59;;;;;;;6.77;3.30;;;6.60;99.90;;;;;;4959329;28;20540;-90
2021/01/22 12:25:25;;;;;;;7.50;3.50;;;6.60;99.90;;;;;;4959545;28;20208;-91
2021/01/22 12:27:50;;;;;;;5.23;3.50;;;6.60;99.90;;;;;;4959219;28;20180;-91
2021/01/22 12:30:17;;;;;;;7.07;3.20;;;6.50;99.90;;;;;;4959155;28;20531;-91
2021/01/22 12:32:42;;;;;;;5.70;3.37;;;6.60;99.90;;;;;;4959159;28;20184;-90
2021/01/22 12:35:08;;;;;;;6.17;3.50;;;6.60;99.90;;;;;;4950982;28;20188;-90
2021/01/22 12:37:34;;;;;;;7.37;3.60;;;6.60;99.90;;;;;;4949311;28;20227;-91
2021/01/22 12:40:00;;;;;;;9.17;3.90;;;6.70;99.90;;;;;;4939880;29;20174;-90
2021/01/22 12:42:25;;;;;;;6.47;3.60;;;6.70;99.90;;;;;;4966923;28;20787;-90
2021/01/22 12:44:51;;;;;;;7.53;3.50;;;6.70;99.90;;;;;;4949782;28;20176;-89
2021/01/22 12:47:17;;;;;;;8.43;3.40;;;6.60;99.90;;;;;;4965535;28;20181;-90
2021/01/22 12:49:42;;;;;;;6.07;3.23;;;6.60;99.90;;;;;;4950816;28;20184;-92
2021/01/22 12:52:08;;;;;;;7.23;3.33;;;6.60;99.90;;;;;;4958971;28;20180;-90
2021/01/22 12:54:34;;;;;;;5.80;3.53;;;6.70;99.90;;;;;;4959188;28;20275;-91
2021/01/22 12:57:00;;;;;;;4.53;3.37;;;6.70;99.90;;;;;;4975983;28;20216;-90
2021/01/22 12:59:25;;;;;;;6.03;3.70;;;6.60;99.90;;;;;;4959055;28;20177;-91
2021/01/22 13:01:51;;;;;;;8.67;3.97;;;6.70;99.90;;;;;;4959163;28;20208;-91